sensor_id;sensor_type;location;lat;lon;timestamp;P1;durP1;ratioP1;P2;durP2;ratioP2
9500;SDS011;4788;52.438;9.846;2022-08-19T00:00:06;0.30;;;0.30;;
9500;SDS011;4788;52.438;9.846;2022-08-19T00:02:33;0.20;;;0.20;;
9500;SDS011;4788;52.438;9.846;2022-08-19T00:04:59;0.30;;;0.30;;
9500;SDS011;4788;52.438;9.846;2022-08-19T00:07:26;0.30;;;0.30;;
9500;SDS011;4788;52.438;9.846;2022-08-19T00:09:52;0.30;;;0.30;;
9500;SDS011;4788;52.438;9.846;2022-08-19T00:12:18;0.30;;;0.30;;
9500;SDS011;4788;52.438;9.846;2022-08-19T00:14:44;0.30;;;0.30;;
9500;SDS011;4788;52.438;9.846;2022-08-19T00:17:10;0.30;;;0.30;;
9500;SDS011;4788;52.438;9.846;2022-08-19T00:19:37;0.30;;;0.30;;
9500;SDS011;4788;52.438;9.846;2022-08-19T00:22:03;0.30;;;0.30;;
9500;SDS011;4788;52.438;9.846;2022-08-19T00:24:30;0.30;;;0.30;;
9500;SDS011;4788;52.438;9.846;2022-08-19T00:26:57;0.30;;;0.30;;
9500;SDS011;4788;52.438;9.846;2022-08-19T00:29:24;0.30;;;0.30;;
9500;SDS011;4788;52.438;9.846;2022-08-19T00:31:51;0.30;;;0.30;;
9500;SDS011;4788;52.438;9.846;2022-08-19T00:34:21;0.30;;;0.30;;
9500;SDS011;4788;52.438;9.846;2022-08-19T00:36:47;0.30;;;0.30;;
9500;SDS011;4788;52.438;9.846;2022-08-19T00:39:17;0.30;;;0.30;;
9500;SDS011;4788;52.438;9.846;2022-08-19T00:41:44;0.30;;;0.30;;
9500;SDS011;4788;52.438;9.846;2022-08-19T00:44:17;0.30;;;0.30;;
9500;SDS011;4788;52.438;9.846;2022-08-19T00:46:45;0.20;;;0.20;;
9500;SDS011;4788;52.438;9.846;2022-08-19T00:49:15;0.30;;;0.30;;
9500;SDS011;4788;52.438;9.846;2022-08-19T00:51:42;0.30;;;0.30;;
9500;SDS011;4788;52.438;9.846;2022-08-19T00:54:10;0.30;;;0.30;;
9500;SDS011;4788;52.438;9.846;2022-08-19T00:56:36;0.30;;;0.30;;
9500;SDS011;4788;52.438;9.846;2022-08-19T00:59:03;0.30;;;0.30;;
9500;SDS011;4788;52.438;9.846;2022-08-19T01:01:33;0.30;;;0.30;;
9500;SDS011;4788;52.438;9.846;2022-08-19T01:03:59;0.33;;;0.33;;
9500;SDS011;4788;52.438;9.846;2022-08-19T01:06:25;0.40;;;0.40;;
9500;SDS011;4788;52.438;9.846;2022-08-19T01:08:51;0.30;;;0.30;;
9500;SDS011;4788;52.438;9.846;2022-08-19T01:11:17;0.20;;;0.20;;
9500;SDS011;4788;52.438;9.846;2022-08-19T01:13:43;0.30;;;0.30;;
9500;SDS011;4788;52.438;9.846;2022-08-19T01:16:10;0.30;;;0.30;;
9500;SDS011;4788;52.438;9.846;2022-08-19T01:18:38;0.40;;;0.40;;
9500;SDS011;4788;52.438;9.846;2022-08-19T01:21:10;0.30;;;0.30;;
9500;SDS011;4788;52.438;9.846;2022-08-19T01:23:40;0.30;;;0.30;;
9500;SDS011;4788;52.438;9.846;2022-08-19T01:26:11;0.30;;;0.30;;
9500;SDS011;4788;52.438;9.846;2022-08-19T01:28:39;0.30;;;0.30;;
9500;SDS011;4788;52.438;9.846;2022-08-19T01:31:05;0.30;;;0.30;;
9500;SDS011;4788;52.438;9.846;2022-08-19T01:33:31;0.30;;;0.30;;
9500;SDS011;4788;52.438;9.846;2022-08-19T01:36:10;0.30;;;0.30;;
9500;SDS011;4788;52.438;9.846;2022-08-19T01:38:39;0.30;;;0.30;;
9500;SDS011;4788;52.438;9.846;2022-08-19T01:41:06;0.20;;;0.20;;
9500;SDS011;4788;52.438;9.846;2022-08-19T01:43:32;0.30;;;0.30;;
9500;SDS011;4788;52.438;9.846;2022-08-19T01:45:58;0.30;;;0.30;;
9500;SDS011;4788;52.438;9.846;2022-08-19T01:48:24;0.30;;;0.30;;
9500;SDS011;4788;52.438;9.846;2022-08-19T01:50:50;0.30;;;0.30;;
9500;SDS011;4788;52.438;9.846;2022-08-19T01:53:16;0.40;;;0.40;;
9500;SDS011;4788;52.438;9.846;2022-08-19T01:55:42;0.30;;;0.30;;
9500;SDS011;4788;52.438;9.846;2022-08-19T01:58:12;0.30;;;0.30;;
9500;SDS011;4788;52.438;9.846;2022-08-19T02:00:40;0.30;;;0.30;;
9500;SDS011;4788;52.438;9.846;2022-08-19T02:03:06;0.30;;;0.30;;
9500;SDS011;4788;52.438;9.846;2022-08-19T02:05:36;0.40;;;0.40;;
9500;SDS011;4788;52.438;9.846;2022-08-19T02:08:02;0.30;;;0.30;;
9500;SDS011;4788;52.438;9.846;2022-08-19T02:10:28;0.30;;;0.30;;
9500;SDS011;4788;52.438;9.846;2022-08-19T02:12:54;0.37;;;0.37;;
9500;SDS011;4788;52.438;9.846;2022-08-19T02:15:20;0.30;;;0.30;;
9500;SDS011;4788;52.438;9.846;2022-08-19T02:17:47;0.30;;;0.30;;
9500;SDS011;4788;52.438;9.846;2022-08-19T02:20:13;0.30;;;0.30;;
9500;SDS011;4788;52.438;9.846;2022-08-19T02:22:40;0.30;;;0.30;;
9500;SDS011;4788;52.438;9.846;2022-08-19T02:25:10;0.30;;;0.30;;
9500;SDS011;4788;52.438;9.846;2022-08-19T02:27:36;0.40;;;0.40;;
9500;SDS011;4788;52.438;9.846;2022-08-19T02:30:03;0.30;;;0.30;;
9500;SDS011;4788;52.438;9.846;2022-08-19T02:32:29;0.30;;;0.30;;
9500;SDS011;4788;52.438;9.846;2022-08-19T02:34:56;0.30;;;0.30;;
9500;SDS011;4788;52.438;9.846;2022-08-19T02:37:22;0.30;;;0.30;;
9500;SDS011;4788;52.438;9.846;2022-08-19T02:40:06;0.30;;;0.30;;
9500;SDS011;4788;52.438;9.846;2022-08-19T02:42:32;0.33;;;0.33;;
9500;SDS011;4788;52.438;9.846;2022-08-19T02:44:58;0.30;;;0.30;;
9500;SDS011;4788;52.438;9.846;2022-08-19T02:47:25;0.30;;;0.30;;
9500;SDS011;4788;52.438;9.846;2022-08-19T02:49:50;0.30;;;0.30;;
9500;SDS011;4788;52.438;9.846;2022-08-19T02:52:16;0.30;;;0.30;;
9500;SDS011;4788;52.438;9.846;2022-08-19T02:54:43;0.40;;;0.40;;
9500;SDS011;4788;52.438;9.846;2022-08-19T02:57:09;0.30;;;0.30;;
9500;SDS011;4788;52.438;9.846;2022-08-19T02:59:35;0.30;;;0.30;;
9500;SDS011;4788;52.438;9.846;2022-08-19T03:02:01;0.30;;;0.30;;
9500;SDS011;4788;52.438;9.846;2022-08-19T03:04:27;0.33;;;0.33;;
9500;SDS011;4788;52.438;9.846;2022-08-19T03:06:54;0.30;;;0.30;;
9500;SDS011;4788;52.438;9.846;2022-08-19T03:09:20;0.30;;;0.30;;
9500;SDS011;4788;52.438;9.846;2022-08-19T03:11:46;0.30;;;0.30;;
9500;SDS011;4788;52.438;9.846;2022-08-19T03:14:12;0.30;;;0.30;;
9500;SDS011;4788;52.438;9.846;2022-08-19T03:16:40;0.30;;;0.30;;
9500;SDS011;4788;52.438;9.846;2022-08-19T03:19:07;0.30;;;0.30;;
9500;SDS011;4788;52.438;9.846;2022-08-19T03:21:33;0.30;;;0.30;;
9500;SDS011;4788;52.438;9.846;2022-08-19T03:24:04;0.40;;;0.40;;
9500;SDS011;4788;52.438;9.846;2022-08-19T03:26:30;0.40;;;0.40;;
9500;SDS011;4788;52.438;9.846;2022-08-19T03:28:56;0.33;;;0.33;;
9500;SDS011;4788;52.438;9.846;2022-08-19T03:31:24;0.40;;;0.40;;
9500;SDS011;4788;52.438;9.846;2022-08-19T03:33:51;0.40;;;0.40;;
9500;SDS011;4788;52.438;9.846;2022-08-19T03:36:21;0.30;;;0.30;;
9500;SDS011;4788;52.438;9.846;2022-08-19T03:38:51;0.30;;;0.30;;
9500;SDS011;4788;52.438;9.846;2022-08-19T03:41:20;0.30;;;0.30;;
9500;SDS011;4788;52.438;9.846;2022-08-19T03:43:46;0.40;;;0.40;;
9500;SDS011;4788;52.438;9.846;2022-08-19T03:46:14;0.30;;;0.30;;
9500;SDS011;4788;52.438;9.846;2022-08-19T03:48:41;0.40;;;0.40;;
9500;SDS011;4788;52.438;9.846;2022-08-19T03:51:07;0.30;;;0.30;;
9500;SDS011;4788;52.438;9.846;2022-08-19T03:53:34;0.30;;;0.30;;
9500;SDS011;4788;52.438;9.846;2022-08-19T03:56:00;0.30;;;0.30;;
9500;SDS011;4788;52.438;9.846;2022-08-19T03:58:27;0.40;;;0.40;;
9500;SDS011;4788;52.438;9.846;2022-08-19T04:00:54;0.40;;;0.40;;
9500;SDS011;4788;52.438;9.846;2022-08-19T04:03:20;0.30;;;0.30;;
9500;SDS011;4788;52.438;9.846;2022-08-19T04:05:46;0.30;;;0.30;;
9500;SDS011;4788;52.438;9.846;2022-08-19T04:08:13;0.30;;;0.30;;
9500;SDS011;4788;52.438;9.846;2022-08-19T04:10:40;0.40;;;0.40;;
9500;SDS011;4788;52.438;9.846;2022-08-19T04:13:06;0.33;;;0.33;;
9500;SDS011;4788;52.438;9.846;2022-08-19T04:15:38;0.30;;;0.30;;
9500;SDS011;4788;52.438;9.846;2022-08-19T04:18:06;0.40;;;0.40;;
9500;SDS011;4788;52.438;9.846;2022-08-19T04:20:32;0.40;;;0.40;;
9500;SDS011;4788;52.438;9.846;2022-08-19T04:22:58;0.37;;;0.37;;
9500;SDS011;4788;52.438;9.846;2022-08-19T04:25:24;0.30;;;0.30;;
9500;SDS011;4788;52.438;9.846;2022-08-19T04:27:50;0.30;;;0.30;;
9500;SDS011;4788;52.438;9.846;2022-08-19T04:30:16;0.40;;;0.40;;
9500;SDS011;4788;52.438;9.846;2022-08-19T04:32:44;0.30;;;0.30;;
9500;SDS011;4788;52.438;9.846;2022-08-19T04:35:10;0.30;;;0.30;;
9500;SDS011;4788;52.438;9.846;2022-08-19T04:37:36;0.30;;;0.30;;
9500;SDS011;4788;52.438;9.846;2022-08-19T04:40:03;0.30;;;0.30;;
9500;SDS011;4788;52.438;9.846;2022-08-19T04:42:48;0.30;;;0.30;;
9500;SDS011;4788;52.438;9.846;2022-08-19T04:45:14;0.33;;;0.33;;
9500;SDS011;4788;52.438;9.846;2022-08-19T04:47:41;0.30;;;0.30;;
9500;SDS011;4788;52.438;9.846;2022-08-19T04:50:07;0.30;;;0.30;;
9500;SDS011;4788;52.438;9.846;2022-08-19T04:52:36;0.30;;;0.30;;
9500;SDS011;4788;52.438;9.846;2022-08-19T04:55:02;0.40;;;0.40;;
9500;SDS011;4788;52.438;9.846;2022-08-19T04:57:30;0.30;;;0.30;;
9500;SDS011;4788;52.438;9.846;2022-08-19T04:59:56;0.30;;;0.30;;
9500;SDS011;4788;52.438;9.846;2022-08-19T05:02:22;0.30;;;0.30;;
9500;SDS011;4788;52.438;9.846;2022-08-19T05:04:50;0.30;;;0.30;;
9500;SDS011;4788;52.438;9.846;2022-08-19T05:07:16;0.30;;;0.30;;
9500;SDS011;4788;52.438;9.846;2022-08-19T05:09:42;0.30;;;0.30;;
9500;SDS011;4788;52.438;9.846;2022-08-19T05:12:08;0.30;;;0.30;;
9500;SDS011;4788;52.438;9.846;2022-08-19T05:14:34;0.30;;;0.30;;
9500;SDS011;4788;52.438;9.846;2022-08-19T05:17:01;0.30;;;0.30;;
9500;SDS011;4788;52.438;9.846;2022-08-19T05:19:27;0.30;;;0.30;;
9500;SDS011;4788;52.438;9.846;2022-08-19T05:22:31;0.30;;;0.30;;
9500;SDS011;4788;52.438;9.846;2022-08-19T05:25:00;0.30;;;0.30;;
9500;SDS011;4788;52.438;9.846;2022-08-19T05:27:26;0.30;;;0.30;;
9500;SDS011;4788;52.438;9.846;2022-08-19T05:29:52;0.30;;;0.30;;
9500;SDS011;4788;52.438;9.846;2022-08-19T05:32:18;0.30;;;0.30;;
9500;SDS011;4788;52.438;9.846;2022-08-19T05:34:44;0.30;;;0.30;;
9500;SDS011;4788;52.438;9.846;2022-08-19T05:37:10;0.30;;;0.30;;
9500;SDS011;4788;52.438;9.846;2022-08-19T05:39:36;0.30;;;0.30;;
9500;SDS011;4788;52.438;9.846;2022-08-19T05:42:05;0.30;;;0.30;;
9500;SDS011;4788;52.438;9.846;2022-08-19T05:44:32;0.30;;;0.30;;
9500;SDS011;4788;52.438;9.846;2022-08-19T05:46:59;0.30;;;0.30;;
9500;SDS011;4788;52.438;9.846;2022-08-19T05:49:27;0.30;;;0.30;;
9500;SDS011;4788;52.438;9.846;2022-08-19T05:51:53;0.30;;;0.30;;
9500;SDS011;4788;52.438;9.846;2022-08-19T05:54:20;0.37;;;0.37;;
9500;SDS011;4788;52.438;9.846;2022-08-19T05:56:48;0.30;;;0.30;;
9500;SDS011;4788;52.438;9.846;2022-08-19T05:59:15;0.30;;;0.30;;
9500;SDS011;4788;52.438;9.846;2022-08-19T06:01:42;0.30;;;0.30;;
9500;SDS011;4788;52.438;9.846;2022-08-19T06:04:08;0.30;;;0.30;;
9500;SDS011;4788;52.438;9.846;2022-08-19T06:06:35;0.30;;;0.30;;
9500;SDS011;4788;52.438;9.846;2022-08-19T06:09:02;0.40;;;0.40;;
9500;SDS011;4788;52.438;9.846;2022-08-19T06:11:36;0.30;;;0.30;;
9500;SDS011;4788;52.438;9.846;2022-08-19T06:14:05;0.30;;;0.30;;
9500;SDS011;4788;52.438;9.846;2022-08-19T06:16:33;0.30;;;0.30;;
9500;SDS011;4788;52.438;9.846;2022-08-19T06:19:00;0.30;;;0.30;;
9500;SDS011;4788;52.438;9.846;2022-08-19T06:21:27;0.30;;;0.30;;
9500;SDS011;4788;52.438;9.846;2022-08-19T06:23:54;0.37;;;0.37;;
9500;SDS011;4788;52.438;9.846;2022-08-19T06:26:20;0.30;;;0.30;;
9500;SDS011;4788;52.438;9.846;2022-08-19T06:28:47;0.30;;;0.30;;
9500;SDS011;4788;52.438;9.846;2022-08-19T06:31:16;0.30;;;0.30;;
9500;SDS011;4788;52.438;9.846;2022-08-19T06:33:43;0.30;;;0.30;;
9500;SDS011;4788;52.438;9.846;2022-08-19T06:36:26;0.30;;;0.30;;
9500;SDS011;4788;52.438;9.846;2022-08-19T06:38:54;0.30;;;0.30;;
9500;SDS011;4788;52.438;9.846;2022-08-19T06:41:22;0.30;;;0.30;;
9500;SDS011;4788;52.438;9.846;2022-08-19T06:43:48;0.30;;;0.30;;
9500;SDS011;4788;52.438;9.846;2022-08-19T06:46:15;0.30;;;0.30;;
9500;SDS011;4788;52.438;9.846;2022-08-19T06:48:43;0.30;;;0.30;;
9500;SDS011;4788;52.438;9.846;2022-08-19T06:51:09;0.30;;;0.30;;
9500;SDS011;4788;52.438;9.846;2022-08-19T06:53:35;0.30;;;0.30;;
9500;SDS011;4788;52.438;9.846;2022-08-19T06:56:01;0.20;;;0.20;;
9500;SDS011;4788;52.438;9.846;2022-08-19T06:58:30;0.30;;;0.30;;
9500;SDS011;4788;52.438;9.846;2022-08-19T07:01:02;0.20;;;0.20;;
9500;SDS011;4788;52.438;9.846;2022-08-19T07:03:29;0.30;;;0.30;;
9500;SDS011;4788;52.438;9.846;2022-08-19T07:05:56;0.30;;;0.30;;
9500;SDS011;4788;52.438;9.846;2022-08-19T07:08:22;0.30;;;0.30;;
9500;SDS011;4788;52.438;9.846;2022-08-19T07:10:49;0.30;;;0.30;;
9500;SDS011;4788;52.438;9.846;2022-08-19T07:13:15;0.30;;;0.30;;
9500;SDS011;4788;52.438;9.846;2022-08-19T07:15:41;0.30;;;0.30;;
9500;SDS011;4788;52.438;9.846;2022-08-19T07:18:07;0.30;;;0.30;;
9500;SDS011;4788;52.438;9.846;2022-08-19T07:20:33;0.30;;;0.30;;
9500;SDS011;4788;52.438;9.846;2022-08-19T07:22:59;0.30;;;0.30;;
9500;SDS011;4788;52.438;9.846;2022-08-19T07:25:25;0.30;;;0.30;;
9500;SDS011;4788;52.438;9.846;2022-08-19T07:27:53;0.30;;;0.30;;
9500;SDS011;4788;52.438;9.846;2022-08-19T07:30:19;0.23;;;0.23;;
9500;SDS011;4788;52.438;9.846;2022-08-19T07:32:45;0.30;;;0.30;;
9500;SDS011;4788;52.438;9.846;2022-08-19T07:35:11;0.30;;;0.30;;
9500;SDS011;4788;52.438;9.846;2022-08-19T07:37:37;0.27;;;0.27;;
9500;SDS011;4788;52.438;9.846;2022-08-19T07:40:05;0.30;;;0.30;;
9500;SDS011;4788;52.438;9.846;2022-08-19T07:42:31;0.30;;;0.30;;
9500;SDS011;4788;52.438;9.846;2022-08-19T07:44:57;0.30;;;0.30;;
9500;SDS011;4788;52.438;9.846;2022-08-19T07:47:27;0.30;;;0.30;;
9500;SDS011;4788;52.438;9.846;2022-08-19T07:49:53;0.27;;;0.27;;
9500;SDS011;4788;52.438;9.846;2022-08-19T07:52:19;0.20;;;0.20;;
9500;SDS011;4788;52.438;9.846;2022-08-19T07:54:45;0.30;;;0.30;;
9500;SDS011;4788;52.438;9.846;2022-08-19T07:57:11;0.30;;;0.30;;
9500;SDS011;4788;52.438;9.846;2022-08-19T07:59:37;0.30;;;0.30;;
9500;SDS011;4788;52.438;9.846;2022-08-19T08:02:03;0.33;;;0.33;;
9500;SDS011;4788;52.438;9.846;2022-08-19T08:04:30;0.30;;;0.30;;
9500;SDS011;4788;52.438;9.846;2022-08-19T08:07:14;0.20;;;0.20;;
9500;SDS011;4788;52.438;9.846;2022-08-19T08:09:59;0.20;;;0.20;;
9500;SDS011;4788;52.438;9.846;2022-08-19T08:12:27;0.27;;;0.27;;
9500;SDS011;4788;52.438;9.846;2022-08-19T08:14:54;0.30;;;0.30;;
9500;SDS011;4788;52.438;9.846;2022-08-19T08:17:22;0.30;;;0.30;;
9500;SDS011;4788;52.438;9.846;2022-08-19T08:19:48;0.20;;;0.20;;
9500;SDS011;4788;52.438;9.846;2022-08-19T08:22:16;0.30;;;0.30;;
9500;SDS011;4788;52.438;9.846;2022-08-19T08:25:12;0.20;;;0.20;;
9500;SDS011;4788;52.438;9.846;2022-08-19T08:27:40;0.20;;;0.20;;
9500;SDS011;4788;52.438;9.846;2022-08-19T08:30:11;0.30;;;0.30;;
9500;SDS011;4788;52.438;9.846;2022-08-19T08:32:37;0.20;;;0.20;;
9500;SDS011;4788;52.438;9.846;2022-08-19T08:35:04;0.30;;;0.30;;
9500;SDS011;4788;52.438;9.846;2022-08-19T08:37:31;0.30;;;0.30;;
9500;SDS011;4788;52.438;9.846;2022-08-19T08:39:57;0.20;;;0.20;;
9500;SDS011;4788;52.438;9.846;2022-08-19T08:42:24;0.20;;;0.20;;
9500;SDS011;4788;52.438;9.846;2022-08-19T08:47:22;0.30;;;0.30;;
9500;SDS011;4788;52.438;9.846;2022-08-19T08:49:56;0.20;;;0.20;;
9500;SDS011;4788;52.438;9.846;2022-08-19T08:52:29;0.20;;;0.20;;
9500;SDS011;4788;52.438;9.846;2022-08-19T08:54:57;0.30;;;0.30;;
9500;SDS011;4788;52.438;9.846;2022-08-19T08:57:28;0.23;;;0.23;;
9500;SDS011;4788;52.438;9.846;2022-08-19T08:59:56;0.20;;;0.20;;
9500;SDS011;4788;52.438;9.846;2022-08-19T09:02:23;0.20;;;0.20;;
9500;SDS011;4788;52.438;9.846;2022-08-19T09:04:49;0.20;;;0.20;;
9500;SDS011;4788;52.438;9.846;2022-08-19T09:07:24;0.20;;;0.20;;
9500;SDS011;4788;52.438;9.846;2022-08-19T09:09:52;0.10;;;0.10;;
9500;SDS011;4788;52.438;9.846;2022-08-19T09:12:24;0.20;;;0.20;;
9500;SDS011;4788;52.438;9.846;2022-08-19T09:15:06;0.20;;;0.20;;
9500;SDS011;4788;52.438;9.846;2022-08-19T09:17:33;0.20;;;0.20;;
9500;SDS011;4788;52.438;9.846;2022-08-19T09:20:04;0.20;;;0.20;;
9500;SDS011;4788;52.438;9.846;2022-08-19T09:22:35;0.20;;;0.20;;
9500;SDS011;4788;52.438;9.846;2022-08-19T09:25:01;0.20;;;0.20;;
9500;SDS011;4788;52.438;9.846;2022-08-19T09:27:28;0.20;;;0.20;;
9500;SDS011;4788;52.438;9.846;2022-08-19T09:29:54;0.20;;;0.20;;
9500;SDS011;4788;52.438;9.846;2022-08-19T09:32:21;0.20;;;0.20;;
9500;SDS011;4788;52.438;9.846;2022-08-19T09:34:48;0.20;;;0.20;;
9500;SDS011;4788;52.438;9.846;2022-08-19T09:37:14;0.20;;;0.20;;
9500;SDS011;4788;52.438;9.846;2022-08-19T09:39:40;0.20;;;0.20;;
9500;SDS011;4788;52.438;9.846;2022-08-19T09:42:07;0.20;;;0.20;;
9500;SDS011;4788;52.438;9.846;2022-08-19T09:44:39;0.20;;;0.20;;
9500;SDS011;4788;52.438;9.846;2022-08-19T09:47:05;0.20;;;0.20;;
9500;SDS011;4788;52.438;9.846;2022-08-19T09:49:31;0.17;;;0.17;;
9500;SDS011;4788;52.438;9.846;2022-08-19T09:51:58;0.10;;;0.10;;
9500;SDS011;4788;52.438;9.846;2022-08-19T09:54:25;0.10;;;0.10;;
9500;SDS011;4788;52.438;9.846;2022-08-19T09:56:51;0.10;;;0.10;;
9500;SDS011;4788;52.438;9.846;2022-08-19T09:59:17;0.10;;;0.10;;
9500;SDS011;4788;52.438;9.846;2022-08-19T10:01:43;0.20;;;0.20;;
9500;SDS011;4788;52.438;9.846;2022-08-19T10:04:09;0.10;;;0.10;;
9500;SDS011;4788;52.438;9.846;2022-08-19T10:06:36;0.10;;;0.10;;
9500;SDS011;4788;52.438;9.846;2022-08-19T10:09:03;0.10;;;0.10;;
9500;SDS011;4788;52.438;9.846;2022-08-19T10:11:33;0.10;;;0.10;;
9500;SDS011;4788;52.438;9.846;2022-08-19T10:13:59;0.10;;;0.10;;
9500;SDS011;4788;52.438;9.846;2022-08-19T10:16:25;0.10;;;0.10;;
9500;SDS011;4788;52.438;9.846;2022-08-19T10:18:51;0.10;;;0.10;;
9500;SDS011;4788;52.438;9.846;2022-08-19T10:21:19;0.10;;;0.10;;
9500;SDS011;4788;52.438;9.846;2022-08-19T10:23:46;0.10;;;0.10;;
9500;SDS011;4788;52.438;9.846;2022-08-19T10:26:14;0.10;;;0.10;;
9500;SDS011;4788;52.438;9.846;2022-08-19T10:28:40;0.10;;;0.10;;
9500;SDS011;4788;52.438;9.846;2022-08-19T10:31:07;0.10;;;0.10;;
9500;SDS011;4788;52.438;9.846;2022-08-19T10:33:34;0.10;;;0.10;;
9500;SDS011;4788;52.438;9.846;2022-08-19T10:36:02;0.10;;;0.10;;
9500;SDS011;4788;52.438;9.846;2022-08-19T10:38:28;0.10;;;0.10;;
9500;SDS011;4788;52.438;9.846;2022-08-19T10:40:54;0.10;;;0.10;;
9500;SDS011;4788;52.438;9.846;2022-08-19T10:43:20;0.10;;;0.10;;
9500;SDS011;4788;52.438;9.846;2022-08-19T10:45:52;0.20;;;0.20;;
9500;SDS011;4788;52.438;9.846;2022-08-19T10:48:21;0.10;;;0.10;;
9500;SDS011;4788;52.438;9.846;2022-08-19T10:50:47;0.10;;;0.10;;
9500;SDS011;4788;52.438;9.846;2022-08-19T10:53:31;0.10;;;0.10;;
9500;SDS011;4788;52.438;9.846;2022-08-19T10:55:57;0.10;;;0.10;;
9500;SDS011;4788;52.438;9.846;2022-08-19T10:58:42;0.10;;;0.10;;
9500;SDS011;4788;52.438;9.846;2022-08-19T11:01:09;0.10;;;0.10;;
9500;SDS011;4788;52.438;9.846;2022-08-19T11:03:35;0.10;;;0.10;;
9500;SDS011;4788;52.438;9.846;2022-08-19T11:06:05;0.10;;;0.10;;
9500;SDS011;4788;52.438;9.846;2022-08-19T11:08:32;0.10;;;0.10;;
9500;SDS011;4788;52.438;9.846;2022-08-19T11:10:59;0.10;;;0.10;;
9500;SDS011;4788;52.438;9.846;2022-08-19T11:13:27;0.10;;;0.10;;
9500;SDS011;4788;52.438;9.846;2022-08-19T11:16:00;0.10;;;0.10;;
9500;SDS011;4788;52.438;9.846;2022-08-19T11:18:26;0.10;;;0.10;;
9500;SDS011;4788;52.438;9.846;2022-08-19T11:20:52;0.10;;;0.10;;
9500;SDS011;4788;52.438;9.846;2022-08-19T11:23:18;0.10;;;0.10;;
9500;SDS011;4788;52.438;9.846;2022-08-19T11:25:45;0.10;;;0.10;;
9500;SDS011;4788;52.438;9.846;2022-08-19T11:28:11;0.10;;;0.10;;
9500;SDS011;4788;52.438;9.846;2022-08-19T11:30:37;0.10;;;0.10;;
9500;SDS011;4788;52.438;9.846;2022-08-19T11:33:03;0.10;;;0.10;;
9500;SDS011;4788;52.438;9.846;2022-08-19T11:35:29;0.10;;;0.10;;
9500;SDS011;4788;52.438;9.846;2022-08-19T11:37:55;0.10;;;0.10;;
9500;SDS011;4788;52.438;9.846;2022-08-19T11:40:26;0.03;;;0.03;;
9500;SDS011;4788;52.438;9.846;2022-08-19T11:42:52;0.10;;;0.10;;
9500;SDS011;4788;52.438;9.846;2022-08-19T11:45:22;0.00;;;0.00;;
9500;SDS011;4788;52.438;9.846;2022-08-19T11:47:48;0.00;;;0.00;;
9500;SDS011;4788;52.438;9.846;2022-08-19T11:50:14;0.00;;;0.00;;
9500;SDS011;4788;52.438;9.846;2022-08-19T11:52:41;0.10;;;0.10;;
9500;SDS011;4788;52.438;9.846;2022-08-19T11:55:07;0.10;;;0.10;;
9500;SDS011;4788;52.438;9.846;2022-08-19T11:57:33;0.08;;;0.08;;
9500;SDS011;4788;52.438;9.846;2022-08-19T11:59:59;0.10;;;0.10;;
9500;SDS011;4788;52.438;9.846;2022-08-19T12:02:27;0.10;;;0.10;;
9500;SDS011;4788;52.438;9.846;2022-08-19T12:04:53;0.10;;;0.10;;
9500;SDS011;4788;52.438;9.846;2022-08-19T12:07:19;0.00;;;0.00;;
9500;SDS011;4788;52.438;9.846;2022-08-19T12:09:45;0.10;;;0.10;;
9500;SDS011;4788;52.438;9.846;2022-08-19T12:12:11;0.10;;;0.10;;
9500;SDS011;4788;52.438;9.846;2022-08-19T12:14:37;0.10;;;0.10;;
9500;SDS011;4788;52.438;9.846;2022-08-19T12:17:03;0.08;;;0.08;;
9500;SDS011;4788;52.438;9.846;2022-08-19T12:19:31;0.03;;;0.03;;
9500;SDS011;4788;52.438;9.846;2022-08-19T12:21:59;0.00;;;0.00;;
9500;SDS011;4788;52.438;9.846;2022-08-19T12:24:29;0.00;;;0.00;;
9500;SDS011;4788;52.438;9.846;2022-08-19T12:26:56;0.10;;;0.10;;
9500;SDS011;4788;52.438;9.846;2022-08-19T12:29:23;0.08;;;0.08;;
9500;SDS011;4788;52.438;9.846;2022-08-19T12:31:53;0.00;;;0.00;;
9500;SDS011;4788;52.438;9.846;2022-08-19T12:34:26;0.00;;;0.00;;
9500;SDS011;4788;52.438;9.846;2022-08-19T12:36:54;0.00;;;0.00;;
9500;SDS011;4788;52.438;9.846;2022-08-19T12:39:20;0.00;;;0.00;;
9500;SDS011;4788;52.438;9.846;2022-08-19T12:41:46;0.00;;;0.00;;
9500;SDS011;4788;52.438;9.846;2022-08-19T12:44:13;0.00;;;0.00;;
9500;SDS011;4788;52.438;9.846;2022-08-19T12:46:39;0.00;;;0.00;;
9500;SDS011;4788;52.438;9.846;2022-08-19T12:49:05;0.10;;;0.10;;
9500;SDS011;4788;52.438;9.846;2022-08-19T12:51:31;0.10;;;0.10;;
9500;SDS011;4788;52.438;9.846;2022-08-19T12:53:57;0.10;;;0.10;;
9500;SDS011;4788;52.438;9.846;2022-08-19T12:56:24;0.00;;;0.00;;
9500;SDS011;4788;52.438;9.846;2022-08-19T12:58:50;0.10;;;0.10;;
9500;SDS011;4788;52.438;9.846;2022-08-19T13:01:16;0.10;;;0.10;;
9500;SDS011;4788;52.438;9.846;2022-08-19T13:03:45;0.00;;;0.00;;
9500;SDS011;4788;52.438;9.846;2022-08-19T13:06:11;0.00;;;0.00;;
9500;SDS011;4788;52.438;9.846;2022-08-19T13:08:37;0.10;;;0.10;;
9500;SDS011;4788;52.438;9.846;2022-08-19T13:11:22;0.00;;;0.00;;
9500;SDS011;4788;52.438;9.846;2022-08-19T13:13:49;0.10;;;0.10;;
9500;SDS011;4788;52.438;9.846;2022-08-19T13:16:16;0.00;;;0.00;;
9500;SDS011;4788;52.438;9.846;2022-08-19T13:18:43;0.00;;;0.00;;
9500;SDS011;4788;52.438;9.846;2022-08-19T13:21:10;0.00;;;0.00;;
9500;SDS011;4788;52.438;9.846;2022-08-19T13:23:38;0.10;;;0.10;;
9500;SDS011;4788;52.438;9.846;2022-08-19T13:26:05;0.00;;;0.00;;
9500;SDS011;4788;52.438;9.846;2022-08-19T13:28:31;0.10;;;0.10;;
9500;SDS011;4788;52.438;9.846;2022-08-19T13:31:16;0.10;;;0.10;;
9500;SDS011;4788;52.438;9.846;2022-08-19T13:34:01;0.10;;;0.10;;
9500;SDS011;4788;52.438;9.846;2022-08-19T13:36:28;0.10;;;0.10;;
9500;SDS011;4788;52.438;9.846;2022-08-19T13:38:54;0.10;;;0.10;;
9500;SDS011;4788;52.438;9.846;2022-08-19T13:41:21;0.10;;;0.10;;
9500;SDS011;4788;52.438;9.846;2022-08-19T13:43:47;0.00;;;0.00;;
9500;SDS011;4788;52.438;9.846;2022-08-19T13:46:14;0.08;;;0.08;;
9500;SDS011;4788;52.438;9.846;2022-08-19T13:48:40;0.10;;;0.10;;
9500;SDS011;4788;52.438;9.846;2022-08-19T13:51:06;0.00;;;0.00;;
9500;SDS011;4788;52.438;9.846;2022-08-19T13:53:34;0.10;;;0.10;;
9500;SDS011;4788;52.438;9.846;2022-08-19T13:56:04;0.10;;;0.10;;
9500;SDS011;4788;52.438;9.846;2022-08-19T13:58:31;0.10;;;0.10;;
9500;SDS011;4788;52.438;9.846;2022-08-19T14:00:57;0.00;;;0.00;;
9500;SDS011;4788;52.438;9.846;2022-08-19T14:03:24;0.00;;;0.00;;
9500;SDS011;4788;52.438;9.846;2022-08-19T14:05:50;0.10;;;0.10;;
9500;SDS011;4788;52.438;9.846;2022-08-19T14:08:16;0.10;;;0.10;;
9500;SDS011;4788;52.438;9.846;2022-08-19T14:10:42;0.10;;;0.10;;
9500;SDS011;4788;52.438;9.846;2022-08-19T14:13:10;0.00;;;0.00;;
9500;SDS011;4788;52.438;9.846;2022-08-19T14:15:36;0.10;;;0.10;;
9500;SDS011;4788;52.438;9.846;2022-08-19T14:18:03;0.10;;;0.10;;
9500;SDS011;4788;52.438;9.846;2022-08-19T14:20:29;0.10;;;0.10;;
9500;SDS011;4788;52.438;9.846;2022-08-19T14:22:55;0.10;;;0.10;;
9500;SDS011;4788;52.438;9.846;2022-08-19T14:25:22;0.10;;;0.10;;
9500;SDS011;4788;52.438;9.846;2022-08-19T14:27:49;0.00;;;0.00;;
9500;SDS011;4788;52.438;9.846;2022-08-19T14:30:16;0.10;;;0.10;;
9500;SDS011;4788;52.438;9.846;2022-08-19T14:32:42;0.10;;;0.10;;
9500;SDS011;4788;52.438;9.846;2022-08-19T14:35:08;0.10;;;0.10;;
9500;SDS011;4788;52.438;9.846;2022-08-19T14:37:34;0.10;;;0.10;;
9500;SDS011;4788;52.438;9.846;2022-08-19T14:40:01;0.10;;;0.10;;
9500;SDS011;4788;52.438;9.846;2022-08-19T14:42:27;0.10;;;0.10;;
9500;SDS011;4788;52.438;9.846;2022-08-19T14:44:56;0.10;;;0.10;;
9500;SDS011;4788;52.438;9.846;2022-08-19T14:47:23;0.00;;;0.00;;
9500;SDS011;4788;52.438;9.846;2022-08-19T14:49:49;0.10;;;0.10;;
9500;SDS011;4788;52.438;9.846;2022-08-19T14:52:15;0.10;;;0.10;;
9500;SDS011;4788;52.438;9.846;2022-08-19T14:54:41;0.10;;;0.10;;
9500;SDS011;4788;52.438;9.846;2022-08-19T14:57:07;0.10;;;0.10;;
9500;SDS011;4788;52.438;9.846;2022-08-19T14:59:36;0.10;;;0.10;;
9500;SDS011;4788;52.438;9.846;2022-08-19T15:02:03;0.10;;;0.10;;
9500;SDS011;4788;52.438;9.846;2022-08-19T15:04:29;0.10;;;0.10;;
9500;SDS011;4788;52.438;9.846;2022-08-19T15:06:55;0.10;;;0.10;;
9500;SDS011;4788;52.438;9.846;2022-08-19T15:09:21;0.10;;;0.10;;
9500;SDS011;4788;52.438;9.846;2022-08-19T15:11:47;0.10;;;0.10;;
9500;SDS011;4788;52.438;9.846;2022-08-19T15:14:13;0.10;;;0.10;;
9500;SDS011;4788;52.438;9.846;2022-08-19T15:16:40;0.10;;;0.10;;
9500;SDS011;4788;52.438;9.846;2022-08-19T15:19:06;0.10;;;0.10;;